Time;durP1;ratioP1;P1;durP2;ratioP2;P2;SDS_P1;SDS_P2;PMS_P1;PMS_P2;Temp;Humidity;BMP_temperature;BMP_pressure;BME280_temperature;BME280_humidity;BME280_pressure;Samples;Min_cycle;Max_cycle;Signal;HPM_P1;HPM_P2
2022/11/16 00:01:20;;;;;;;81.30;39.03;;;;;;;;;;5092553;28;20195;-59
2022/11/16 00:03:48;;;;;;;84.90;39.90;;;;;;;;;;5092681;28;20194;-59
2022/11/16 00:06:15;;;;;;;80.45;40.58;;;;;;;;;;5092573;28;20191;-58
2022/11/16 00:08:43;;;;;;;86.03;39.58;;;;;;;;;;5092542;28;20236;-59
2022/11/16 00:11:12;;;;;;;84.50;40.88;;;;;;;;;;5092427;28;20187;-58
2022/11/16 00:13:40;;;;;;;75.55;39.30;;;;;;;;;;5092751;28;20192;-59
2022/11/16 00:16:08;;;;;;;90.60;42.17;;;;;;;;;;5092526;28;20302;-58
2022/11/16 00:18:37;;;;;;;79.03;39.92;;;;;;;;;;5092511;28;20191;-59
2022/11/16 00:21:05;;;;;;;73.88;40.15;;;;;;;;;;5092454;28;20198;-59
2022/11/16 00:23:32;;;;;;;79.75;41.15;;;;;;;;;;5094358;28;20535;-60
2022/11/16 00:26:02;;;;;;;87.82;43.33;;;;;;;;;;5096127;28;20187;-58
2022/11/16 00:28:30;;;;;;;77.55;38.25;;;;;;;;;;5096220;28;20197;-59
2022/11/16 00:31:00;;;;;;;82.13;40.28;;;;;;;;;;5096148;28;20247;-59
2022/11/16 00:33:27;;;;;;;95.00;41.03;;;;;;;;;;5095961;28;20222;-59
2022/11/16 00:35:54;;;;;;;88.68;42.10;;;;;;;;;;5096050;28;20190;-59
2022/11/16 00:38:21;;;;;;;84.90;42.22;;;;;;;;;;5095841;28;20195;-59
2022/11/16 00:40:48;;;;;;;89.45;40.97;;;;;;;;;;5096102;28;20649;-60
2022/11/16 00:43:15;;;;;;;105.45;43.28;;;;;;;;;;5096007;28;20286;-59
2022/11/16 00:45:44;;;;;;;78.07;40.53;;;;;;;;;;5095964;28;20286;-59
2022/11/16 00:48:11;;;;;;;83.13;40.15;;;;;;;;;;5095664;28;20237;-58
2022/11/16 00:50:38;;;;;;;89.00;43.72;;;;;;;;;;5095637;28;20662;-60
2022/11/16 00:53:05;;;;;;;83.22;40.55;;;;;;;;;;5095525;28;20253;-59
2022/11/16 00:55:32;;;;;;;81.97;39.58;;;;;;;;;;5095738;28;20556;-59
2022/11/16 00:57:59;;;;;;;99.55;44.70;;;;;;;;;;5095533;28;20649;-59
2022/11/16 01:00:26;;;;;;;83.15;40.30;;;;;;;;;;5095673;28;20194;-59
2022/11/16 01:02:54;;;;;;;82.60;39.95;;;;;;;;;;5095444;28;20655;-58
2022/11/16 01:05:22;;;;;;;90.75;42.83;;;;;;;;;;5095347;28;20186;-58
2022/11/16 01:07:49;;;;;;;94.20;41.13;;;;;;;;;;5095622;28;20584;-59
2022/11/16 01:10:17;;;;;;;75.90;36.03;;;;;;;;;;5095419;28;20264;-58
2022/11/16 01:12:44;;;;;;;89.55;38.85;;;;;;;;;;5095344;28;20222;-59
2022/11/16 01:15:11;;;;;;;84.63;38.15;;;;;;;;;;5095266;28;20187;-58
2022/11/16 01:17:38;;;;;;;80.15;39.42;;;;;;;;;;5095212;28;20194;-58
2022/11/16 01:20:09;;;;;;;78.63;40.45;;;;;;;;;;5095054;28;20191;-59
2022/11/16 01:22:36;;;;;;;86.40;40.58;;;;;;;;;;5095341;28;20615;-59
2022/11/16 01:25:03;;;;;;;74.40;39.22;;;;;;;;;;5095214;28;20201;-59
2022/11/16 01:27:30;;;;;;;78.03;38.22;;;;;;;;;;5095116;28;20191;-59
2022/11/16 01:29:56;;;;;;;75.35;37.28;;;;;;;;;;5095104;28;20217;-59
2022/11/16 01:32:24;;;;;;;87.25;39.58;;;;;;;;;;5094733;28;20211;-59
2022/11/16 01:34:51;;;;;;;74.50;36.50;;;;;;;;;;5093904;28;20221;-59
2022/11/16 01:37:19;;;;;;;68.32;38.17;;;;;;;;;;5095005;28;20616;-59
2022/11/16 01:39:46;;;;;;;67.22;36.33;;;;;;;;;;5094869;28;20569;-59
2022/11/16 01:42:17;;;;;;;71.40;35.60;;;;;;;;;;5094745;28;20191;-59
2022/11/16 01:44:58;;;;;;;59.80;33.95;;;;;;;;;;5094655;28;20566;-58
2022/11/16 01:47:25;;;;;;;68.78;37.08;;;;;;;;;;5094536;28;20225;-58
2022/11/16 01:49:54;;;;;;;81.93;38.97;;;;;;;;;;5094699;28;20186;-59
2022/11/16 01:52:24;;;;;;;64.22;34.03;;;;;;;;;;5094569;28;20221;-59
2022/11/16 01:54:53;;;;;;;61.70;32.55;;;;;;;;;;5094369;28;20654;-59
2022/11/16 01:57:23;;;;;;;73.85;35.42;;;;;;;;;;5094391;28;20186;-60
2022/11/16 01:59:51;;;;;;;65.50;32.38;;;;;;;;;;5094570;28;20190;-59
2022/11/16 02:02:18;;;;;;;59.10;33.85;;;;;;;;;;5094475;28;20195;-59
2022/11/16 02:04:46;;;;;;;72.35;37.00;;;;;;;;;;5094397;28;20195;-58
2022/11/16 02:07:16;;;;;;;76.72;35.20;;;;;;;;;;5094463;28;20615;-59
2022/11/16 02:09:53;;;;;;;71.70;35.15;;;;;;;;;;5094293;28;20611;-58
2022/11/16 02:12:34;;;;;;;76.15;37.30;;;;;;;;;;5094260;28;20620;-59
2022/11/16 02:15:09;;;;;;;75.20;36.85;;;;;;;;;;5094278;28;20198;-58
2022/11/16 02:17:39;;;;;;;81.22;39.20;;;;;;;;;;5094143;28;20281;-59
2022/11/16 02:20:23;;;;;;;75.63;36.55;;;;;;;;;;5093981;28;20222;-59
2022/11/16 02:23:00;;;;;;;84.20;38.97;;;;;;;;;;5094145;28;20194;-58
2022/11/16 02:25:31;;;;;;;93.10;41.40;;;;;;;;;;5094057;28;20552;-59
2022/11/16 02:28:10;;;;;;;89.90;40.38;;;;;;;;;;5093891;28;20278;-57
2022/11/16 02:30:40;;;;;;;100.25;44.00;;;;;;;;;;5093747;28;20190;-59
2022/11/16 02:33:10;;;;;;;102.53;43.65;;;;;;;;;;5093638;28;20301;-58
2022/11/16 02:35:38;;;;;;;91.43;42.53;;;;;;;;;;5093801;28;20286;-58
2022/11/16 02:38:08;;;;;;;94.55;43.10;;;;;;;;;;5093685;28;20191;-59
2022/11/16 02:40:36;;;;;;;95.95;40.65;;;;;;;;;;5093570;28;20202;-59
2022/11/16 02:43:06;;;;;;;100.38;40.50;;;;;;;;;;5093556;28;20191;-59
2022/11/16 02:45:35;;;;;;;85.85;40.25;;;;;;;;;;5093159;28;20187;-58
2022/11/16 02:48:05;;;;;;;87.28;40.78;;;;;;;;;;5093500;28;20227;-56
2022/11/16 02:50:32;;;;;;;94.40;43.20;;;;;;;;;;5093496;28;20201;-58
2022/11/16 02:52:59;;;;;;;91.75;42.45;;;;;;;;;;5093394;28;20570;-58
2022/11/16 02:55:27;;;;;;;90.38;42.10;;;;;;;;;;5093360;28;20329;-58
2022/11/16 02:57:56;;;;;;;86.85;41.15;;;;;;;;;;5093254;28;20195;-58
2022/11/16 03:00:23;;;;;;;100.78;43.55;;;;;;;;;;5093427;28;20192;-60
2022/11/16 03:02:56;;;;;;;91.13;41.13;;;;;;;;;;5093344;28;20282;-59
2022/11/16 03:05:31;;;;;;;97.90;42.22;;;;;;;;;;5093404;28;20198;-58
2022/11/16 03:08:02;;;;;;;92.68;44.20;;;;;;;;;;5093283;28;20534;-58
2022/11/16 03:13:14;;;;;;;99.05;44.70;;;;;;;;;;5071589;28;20214;-59
2022/11/16 03:15:41;;;;;;;99.63;46.35;;;;;;;;;;5093239;28;20209;-59
2022/11/16 03:18:09;;;;;;;114.25;50.58;;;;;;;;;;5093066;28;20197;-58
2022/11/16 03:20:38;;;;;;;107.25;49.00;;;;;;;;;;5093469;28;20546;-61
2022/11/16 03:23:08;;;;;;;113.35;55.22;;;;;;;;;;5092989;28;20199;-59
2022/11/16 03:25:39;;;;;;;112.85;51.95;;;;;;;;;;5093104;28;20527;-58
2022/11/16 03:28:09;;;;;;;108.95;51.65;;;;;;;;;;5093099;28;20200;-59
2022/11/16 03:30:38;;;;;;;113.97;50.47;;;;;;;;;;5092976;28;20195;-59
2022/11/16 03:33:10;;;;;;;118.00;51.60;;;;;;;;;;5092835;28;20303;-57
2022/11/16 03:35:39;;;;;;;127.75;50.95;;;;;;;;;;5093065;28;20191;-59
2022/11/16 03:38:06;;;;;;;119.25;51.83;;;;;;;;;;5092981;28;20194;-59
2022/11/16 03:40:34;;;;;;;140.27;57.83;;;;;;;;;;5092904;28;20556;-58
2022/11/16 03:43:02;;;;;;;135.90;57.03;;;;;;;;;;5092851;28;20205;-59
2022/11/16 03:45:30;;;;;;;137.95;52.00;;;;;;;;;;5092769;28;20195;-59
2022/11/16 03:47:57;;;;;;;124.80;55.00;;;;;;;;;;5092486;28;20235;-59
2022/11/16 03:50:24;;;;;;;126.60;55.65;;;;;;;;;;5092880;28;20193;-58
2022/11/16 03:52:52;;;;;;;123.20;53.45;;;;;;;;;;5092571;28;20210;-59
2022/11/16 03:55:23;;;;;;;128.93;57.30;;;;;;;;;;5092725;28;20194;-59
2022/11/16 03:57:50;;;;;;;130.27;51.10;;;;;;;;;;5093720;28;20195;-59
2022/11/16 04:00:19;;;;;;;130.32;53.58;;;;;;;;;;5096630;28;20195;-59
2022/11/16 04:02:46;;;;;;;130.50;52.20;;;;;;;;;;5096853;28;20646;-59
2022/11/16 04:24:37;;;;;;;149.48;55.10;;;;;;;;;;5096297;28;20190;-59
2022/11/16 04:29:49;;;;;;;149.70;53.25;;;;;;;;;;5096215;28;20241;-59
2022/11/16 04:37:52;;;;;;;166.27;56.95;;;;;;;;;;5086937;28;20250;-60
2022/11/16 04:40:22;;;;;;;166.07;56.10;;;;;;;;;;5096076;28;20198;-59
2022/11/16 04:42:52;;;;;;;172.13;55.65;;;;;;;;;;5096003;28;20233;-58
2022/11/16 04:48:04;;;;;;;176.75;56.78;;;;;;;;;;5095855;28;20238;-59
2022/11/16 04:50:31;;;;;;;165.38;54.55;;;;;;;;;;5095689;28;20602;-57
2022/11/16 04:52:58;;;;;;;171.97;58.57;;;;;;;;;;5095517;28;20226;-59
2022/11/16 04:55:26;;;;;;;192.32;58.67;;;;;;;;;;5095713;28;20540;-60
2022/11/16 04:57:53;;;;;;;154.35;54.67;;;;;;;;;;5095630;28;20195;-59
2022/11/16 05:00:22;;;;;;;166.75;54.15;;;;;;;;;;5095612;28;20191;-59
2022/11/16 05:02:49;;;;;;;169.43;54.20;;;;;;;;;;5095379;28;20251;-59
2022/11/16 05:05:16;;;;;;;167.60;56.30;;;;;;;;;;5095612;28;20199;-58
2022/11/16 05:07:43;;;;;;;196.05;57.10;;;;;;;;;;5095495;28;20281;-59
2022/11/16 05:10:11;;;;;;;182.02;54.80;;;;;;;;;;5095297;28;20637;-59
2022/11/16 05:12:43;;;;;;;191.85;57.47;;;;;;;;;;5095380;28;20286;-59
2022/11/16 05:15:12;;;;;;;181.13;55.47;;;;;;;;;;5095183;28;20219;-57
2022/11/16 05:17:43;;;;;;;176.23;55.05;;;;;;;;;;5095111;28;20249;-59
2022/11/16 05:22:55;;;;;;;171.15;54.75;;;;;;;;;;5095171;28;20194;-59
2022/11/16 05:25:22;;;;;;;181.10;55.17;;;;;;;;;;5095294;28;20202;-59
2022/11/16 05:27:50;;;;;;;193.18;55.30;;;;;;;;;;5094964;28;20192;-59
2022/11/16 05:30:17;;;;;;;197.77;56.80;;;;;;;;;;5095115;28;20197;-59
2022/11/16 05:32:44;;;;;;;183.65;57.40;;;;;;;;;;5094861;28;20669;-59
2022/11/16 05:35:11;;;;;;;174.32;52.78;;;;;;;;;;5094848;28;20229;-60
2022/11/16 05:37:38;;;;;;;195.50;55.28;;;;;;;;;;5095066;28;20282;-59
2022/11/16 05:40:06;;;;;;;203.25;56.28;;;;;;;;;;5094991;28;20196;-59
2022/11/16 05:42:33;;;;;;;174.10;53.15;;;;;;;;;;5094581;28;20191;-60
2022/11/16 05:45:01;;;;;;;208.38;56.97;;;;;;;;;;5094795;28;20265;-59
2022/11/16 05:47:28;;;;;;;209.63;55.13;;;;;;;;;;5094456;28;20576;-59
2022/11/16 05:49:55;;;;;;;201.18;56.65;;;;;;;;;;5094527;28;20188;-59
2022/11/16 05:52:22;;;;;;;184.73;57.13;;;;;;;;;;5094418;28;20197;-59
2022/11/16 05:54:48;;;;;;;185.50;54.15;;;;;;;;;;5094277;28;20229;-58
2022/11/16 05:57:16;;;;;;;184.57;54.33;;;;;;;;;;5094219;28;20197;-58
2022/11/16 05:59:43;;;;;;;195.88;56.95;;;;;;;;;;5094202;28;20606;-60
2022/11/16 06:02:11;;;;;;;200.70;56.95;;;;;;;;;;5094321;28;20283;-59
2022/11/16 06:04:38;;;;;;;194.13;55.35;;;;;;;;;;5094340;28;20286;-59
2022/11/16 06:07:05;;;;;;;195.70;57.70;;;;;;;;;;5094241;28;20198;-59
2022/11/16 06:09:32;;;;;;;197.57;57.55;;;;;;;;;;5093951;28;20450;-59
2022/11/16 06:11:58;;;;;;;190.20;55.17;;;;;;;;;;5094225;28;20554;-59
2022/11/16 06:14:25;;;;;;;195.57;55.00;;;;;;;;;;5094438;28;20226;-59
2022/11/16 06:16:52;;;;;;;189.23;57.20;;;;;;;;;;5094147;28;20197;-59
2022/11/16 06:19:21;;;;;;;189.10;54.75;;;;;;;;;;5094065;28;20221;-59
2022/11/16 06:21:47;;;;;;;207.15;54.47;;;;;;;;;;5093291;28;20642;-59
2022/11/16 06:24:14;;;;;;;198.07;57.15;;;;;;;;;;5093756;28;20203;-58
2022/11/16 06:26:41;;;;;;;207.95;58.35;;;;;;;;;;5094026;28;20191;-58
2022/11/16 06:29:10;;;;;;;241.05;60.72;;;;;;;;;;5093873;28;20249;-57
2022/11/16 06:31:40;;;;;;;172.68;51.63;;;;;;;;;;5093812;28;20187;-57
2022/11/16 06:34:07;;;;;;;187.32;55.00;;;;;;;;;;5093470;28;20226;-58
2022/11/16 06:36:35;;;;;;;191.68;54.80;;;;;;;;;;5093411;28;20646;-58
2022/11/16 06:39:02;;;;;;;159.45;51.55;;;;;;;;;;5093526;28;20214;-58
2022/11/16 06:41:30;;;;;;;167.47;51.80;;;;;;;;;;5093924;28;20283;-58
2022/11/16 06:43:57;;;;;;;159.77;51.83;;;;;;;;;;5093742;28;20455;-58
2022/11/16 06:46:24;;;;;;;169.67;51.37;;;;;;;;;;5093505;28;20893;-59
2022/11/16 06:48:51;;;;;;;186.93;51.95;;;;;;;;;;5093470;28;20537;-59
2022/11/16 06:51:18;;;;;;;173.40;53.97;;;;;;;;;;5093291;28;20283;-59
2022/11/16 06:53:46;;;;;;;163.60;50.50;;;;;;;;;;5093463;28;20198;-59
2022/11/16 06:56:15;;;;;;;192.30;54.90;;;;;;;;;;5093345;28;20198;-59
2022/11/16 06:58:43;;;;;;;194.18;54.58;;;;;;;;;;5093305;28;20202;-58
2022/11/16 07:01:13;;;;;;;173.33;52.20;;;;;;;;;;5093145;28;20237;-59
2022/11/16 07:03:40;;;;;;;178.37;53.47;;;;;;;;;;5093107;28;20542;-58
2022/11/16 07:06:07;;;;;;;170.05;51.60;;;;;;;;;;5093162;28;20840;-59
2022/11/16 07:08:34;;;;;;;160.02;51.80;;;;;;;;;;5093195;28;20630;-58
2022/11/16 07:11:06;;;;;;;171.98;53.33;;;;;;;;;;5093324;28;20188;-58
2022/11/16 07:13:33;;;;;;;179.87;53.70;;;;;;;;;;5092894;28;20279;-58
2022/11/16 07:16:03;;;;;;;165.70;54.90;;;;;;;;;;5092845;28;21078;-58
2022/11/16 07:18:32;;;;;;;175.07;55.40;;;;;;;;;;5093187;28;20499;-59
2022/11/16 07:20:59;;;;;;;193.37;53.03;;;;;;;;;;5093094;28;20544;-59
2022/11/16 07:23:26;;;;;;;189.25;53.65;;;;;;;;;;5093063;28;20936;-59
2022/11/16 07:25:53;;;;;;;203.45;54.10;;;;;;;;;;5092892;28;20227;-59
2022/11/16 07:28:21;;;;;;;194.20;55.08;;;;;;;;;;5092848;28;20188;-58
2022/11/16 07:30:48;;;;;;;199.95;54.63;;;;;;;;;;5092757;28;20201;-59
2022/11/16 07:33:15;;;;;;;197.13;55.00;;;;;;;;;;5091970;28;20193;-58
2022/11/16 07:35:42;;;;;;;176.70;50.58;;;;;;;;;;5092815;28;20230;-59
2022/11/16 07:38:10;;;;;;;185.75;51.75;;;;;;;;;;5092616;28;20726;-59
2022/11/16 07:40:37;;;;;;;191.32;52.50;;;;;;;;;;5092679;28;20365;-59
2022/11/16 07:43:04;;;;;;;183.05;53.03;;;;;;;;;;5092588;28;20190;-58
2022/11/16 07:45:34;;;;;;;197.93;53.13;;;;;;;;;;5092945;28;20201;-59
2022/11/16 07:48:01;;;;;;;179.50;51.40;;;;;;;;;;5092919;28;20223;-59
2022/11/16 07:50:28;;;;;;;184.57;51.38;;;;;;;;;;5092853;28;20225;-59
2022/11/16 07:52:55;;;;;;;162.07;48.05;;;;;;;;;;5092767;28;20193;-60
2022/11/16 07:55:24;;;;;;;155.57;47.07;;;;;;;;;;5092638;28;20682;-59
2022/11/16 07:57:51;;;;;;;146.07;47.17;;;;;;;;;;5092483;28;20545;-58
2022/11/16 08:00:18;;;;;;;153.88;46.80;;;;;;;;;;5092727;28;20540;-58
2022/11/16 08:02:46;;;;;;;131.88;45.35;;;;;;;;;;5092844;28;20191;-58
2022/11/16 08:05:13;;;;;;;144.70;44.40;;;;;;;;;;5092573;28;20194;-59
2022/11/16 08:07:42;;;;;;;131.00;43.40;;;;;;;;;;5092650;28;20278;-59
2022/11/16 08:10:09;;;;;;;112.43;41.83;;;;;;;;;;5092401;28;20278;-59
2022/11/16 08:12:36;;;;;;;138.95;44.95;;;;;;;;;;5092459;28;20290;-59
2022/11/16 08:15:04;;;;;;;128.90;42.25;;;;;;;;;;5092430;28;20219;-59
2022/11/16 08:17:31;;;;;;;115.25;41.10;;;;;;;;;;5092602;28;20278;-58
2022/11/16 08:19:59;;;;;;;118.10;40.55;;;;;;;;;;5092381;28;20217;-58
2022/11/16 08:22:28;;;;;;;118.97;42.87;;;;;;;;;;5092355;28;20283;-58
2022/11/16 08:24:57;;;;;;;103.10;37.80;;;;;;;;;;5092008;28;20541;-59
2022/11/16 08:27:24;;;;;;;107.32;41.20;;;;;;;;;;5092552;28;20449;-58
2022/11/16 08:29:53;;;;;;;105.00;39.80;;;;;;;;;;5092233;28;20620;-57
2022/11/16 08:32:22;;;;;;;100.00;39.83;;;;;;;;;;5090373;28;20895;-58
2022/11/16 08:34:49;;;;;;;117.00;46.28;;;;;;;;;;5091254;28;20442;-58
2022/11/16 08:37:19;;;;;;;107.27;40.73;;;;;;;;;;5091940;28;20191;-59
2022/11/16 08:39:46;;;;;;;95.93;36.88;;;;;;;;;;5092164;28;20933;-57
2022/11/16 08:42:15;;;;;;;98.30;35.30;;;;;;;;;;5092155;28;20198;-57
2022/11/16 08:44:46;;;;;;;103.88;34.33;;;;;;;;;;5094357;28;20449;-57
2022/11/16 08:47:13;;;;;;;103.90;37.72;;;;;;;;;;5095628;28;20324;-58
2022/11/16 08:49:40;;;;;;;93.30;37.10;;;;;;;;;;5095508;28;20191;-56
2022/11/16 08:52:07;;;;;;;93.30;35.77;;;;;;;;;;5095288;28;20534;-57
2022/11/16 08:54:35;;;;;;;92.63;34.08;;;;;;;;;;5095777;28;20547;-57
2022/11/16 08:57:02;;;;;;;93.28;35.13;;;;;;;;;;5089928;28;20275;-58
2022/11/16 08:59:29;;;;;;;98.27;36.70;;;;;;;;;;5077754;28;20189;-57
2022/11/16 09:01:56;;;;;;;101.15;35.53;;;;;;;;;;5075185;28;20450;-58
2022/11/16 09:04:23;;;;;;;83.88;32.42;;;;;;;;;;5079976;28;20184;-58
2022/11/16 09:06:52;;;;;;;82.97;33.00;;;;;;;;;;5077240;28;20195;-58
2022/11/16 09:09:19;;;;;;;83.53;31.48;;;;;;;;;;5077583;28;20447;-57
2022/11/16 09:11:50;;;;;;;78.47;30.67;;;;;;;;;;5074928;28;20598;-58
2022/11/16 09:14:17;;;;;;;90.10;31.15;;;;;;;;;;5078455;28;20440;-57
2022/11/16 09:16:44;;;;;;;73.80;31.02;;;;;;;;;;5088835;28;20218;-57
2022/11/16 09:19:11;;;;;;;77.50;30.55;;;;;;;;;;5094846;28;20628;-58
2022/11/16 09:21:38;;;;;;;69.97;28.88;;;;;;;;;;5095149;28;20200;-57
2022/11/16 09:24:05;;;;;;;73.00;28.93;;;;;;;;;;5094884;28;20285;-57
2022/11/16 09:26:32;;;;;;;64.47;29.57;;;;;;;;;;5088437;28;21014;-57
2022/11/16 09:29:03;;;;;;;59.33;27.17;;;;;;;;;;5089860;28;20533;-57
2022/11/16 09:31:33;;;;;;;68.18;27.38;;;;;;;;;;5082330;28;20184;-58
2022/11/16 09:34:01;;;;;;;61.13;25.08;;;;;;;;;;5077534;28;20184;-56
2022/11/16 09:36:28;;;;;;;54.83;24.97;;;;;;;;;;5074532;28;20239;-56
2022/11/16 09:38:58;;;;;;;61.13;23.60;;;;;;;;;;5074526;28;20541;-58
2022/11/16 09:41:38;;;;;;;55.63;25.58;;;;;;;;;;5076892;28;20207;-60
2022/11/16 09:44:10;;;;;;;50.38;21.42;;;;;;;;;;5084932;28;20628;-59
2022/11/16 09:46:39;;;;;;;54.37;22.87;;;;;;;;;;5090413;28;20665;-60
2022/11/16 09:49:10;;;;;;;47.40;20.83;;;;;;;;;;5089087;28;20539;-56
2022/11/16 09:51:37;;;;;;;43.20;18.52;;;;;;;;;;5079661;28;20541;-59
2022/11/16 09:54:05;;;;;;;43.00;20.87;;;;;;;;;;5074077;28;20294;-59
2022/11/16 09:56:34;;;;;;;36.47;17.80;;;;;;;;;;5072877;28;20485;-61
2022/11/16 09:59:03;;;;;;;37.20;18.03;;;;;;;;;;5074100;28;20540;-60
2022/11/16 10:01:32;;;;;;;35.35;17.38;;;;;;;;;;5077547;28;20462;-59
2022/11/16 10:04:05;;;;;;;38.97;18.33;;;;;;;;;;5080047;28;20284;-62
2022/11/16 10:06:37;;;;;;;36.83;17.75;;;;;;;;;;5073429;28;20602;-59
2022/11/16 10:09:04;;;;;;;41.03;20.38;;;;;;;;;;5073779;28;20535;-60
2022/11/16 10:11:55;;;;;;;32.15;18.80;;;;;;;;;;5077724;28;20180;-61
2022/11/16 10:14:43;;;;;;;40.30;22.83;;;;;;;;;;5094081;28;20196;-59
2022/11/16 10:17:18;;;;;;;43.00;20.63;;;;;;;;;;5090439;28;20218;-62
2022/11/16 10:19:48;;;;;;;43.80;21.58;;;;;;;;;;5093958;28;20716;-60
2022/11/16 10:22:22;;;;;;;44.15;21.65;;;;;;;;;;5082934;28;20192;-61
2022/11/16 10:24:54;;;;;;;45.47;22.83;;;;;;;;;;5083560;28;20187;-62
2022/11/16 10:27:43;;;;;;;46.80;23.30;;;;;;;;;;5072895;28;20445;-61
2022/11/16 10:30:12;;;;;;;44.67;23.83;;;;;;;;;;5073701;28;20206;-61
2022/11/16 10:32:44;;;;;;;52.90;26.70;;;;;;;;;;5073390;28;20673;-65
2022/11/16 10:35:16;;;;;;;47.08;26.23;;;;;;;;;;5073383;28;20192;-60
2022/11/16 10:37:45;;;;;;;47.20;23.63;;;;;;;;;;5073420;28;20192;-60
2022/11/16 10:40:16;;;;;;;53.83;25.02;;;;;;;;;;5073165;28;20286;-62
2022/11/16 10:42:45;;;;;;;48.85;25.50;;;;;;;;;;5073432;28;20271;-61
2022/11/16 10:45:15;;;;;;;48.50;25.40;;;;;;;;;;5073229;28;20648;-61
2022/11/16 10:47:48;;;;;;;47.55;23.70;;;;;;;;;;5073060;28;20567;-61
2022/11/16 10:50:30;;;;;;;38.00;22.10;;;;;;;;;;5073342;28;20197;-59
2022/11/16 10:52:57;;;;;;;39.42;23.65;;;;;;;;;;5074389;28;20204;-59
2022/11/16 10:55:24;;;;;;;41.63;21.45;;;;;;;;;;5081503;28;20200;-64
2022/11/16 10:57:55;;;;;;;45.42;23.67;;;;;;;;;;5072811;28;20206;-62
2022/11/16 11:00:34;;;;;;;43.67;25.35;;;;;;;;;;5078611;28;20205;-58
2022/11/16 11:03:02;;;;;;;36.63;20.83;;;;;;;;;;5093271;28;20195;-60
2022/11/16 11:05:29;;;;;;;36.00;22.80;;;;;;;;;;5093198;28;20475;-59
2022/11/16 11:08:01;;;;;;;40.57;22.97;;;;;;;;;;5092850;28;20199;-63
2022/11/16 11:10:29;;;;;;;40.33;23.23;;;;;;;;;;5093294;28;20457;-54
2022/11/16 11:13:07;;;;;;;39.80;21.57;;;;;;;;;;5092913;28;20230;-59
2022/11/16 11:15:34;;;;;;;32.15;22.55;;;;;;;;;;5092827;28;20453;-59
2022/11/16 11:18:14;;;;;;;38.70;22.50;;;;;;;;;;5092484;28;20252;-59
2022/11/16 11:20:43;;;;;;;36.35;23.13;;;;;;;;;;5092958;28;20485;-60
2022/11/16 11:23:15;;;;;;;33.60;20.67;;;;;;;;;;5092848;28;20278;-58
2022/11/16 11:25:48;;;;;;;37.63;21.95;;;;;;;;;;5092684;28;20263;-60
2022/11/16 11:28:17;;;;;;;32.88;20.88;;;;;;;;;;5083587;28;20262;-59
2022/11/16 11:30:51;;;;;;;41.40;22.88;;;;;;;;;;5103258;28;20210;-59
2022/11/16 11:33:22;;;;;;;31.57;20.93;;;;;;;;;;5113228;28;20189;-61
2022/11/16 11:35:56;;;;;;;31.63;19.85;;;;;;;;;;5112876;28;20987;-60
2022/11/16 11:38:23;;;;;;;35.05;22.80;;;;;;;;;;5113075;28;20196;-59
2022/11/16 11:40:58;;;;;;;36.72;21.02;;;;;;;;;;5112841;28;20611;-60
2022/11/16 11:43:25;;;;;;;31.50;20.70;;;;;;;;;;5113071;28;20194;-60
2022/11/16 11:45:55;;;;;;;35.10;21.38;;;;;;;;;;5113093;28;20465;-55
2022/11/16 11:48:30;;;;;;;31.75;20.33;;;;;;;;;;5112671;28;20616;-60
2022/11/16 11:50:59;;;;;;;41.13;22.25;;;;;;;;;;5112945;28;20278;-61
2022/11/16 11:53:36;;;;;;;36.92;22.40;;;;;;;;;;5102585;28;20606;-61
2022/11/16 11:56:03;;;;;;;34.07;20.27;;;;;;;;;;5099595;28;20221;-60
2022/11/16 11:58:31;;;;;;;33.95;21.05;;;;;;;;;;5104097;28;20474;-62
2022/11/16 12:01:05;;;;;;;32.70;20.52;;;;;;;;;;5081230;28;20188;-61
2022/11/16 12:03:49;;;;;;;30.58;21.08;;;;;;;;;;5071863;28;20206;-59
2022/11/16 12:06:19;;;;;;;40.00;21.15;;;;;;;;;;5073479;28;20279;-60
2022/11/16 12:08:55;;;;;;;39.30;21.38;;;;;;;;;;5087858;28;20276;-60
2022/11/16 12:11:26;;;;;;;34.97;23.38;;;;;;;;;;5091720;28;20540;-60
2022/11/16 12:14:01;;;;;;;40.35;23.60;;;;;;;;;;5082572;28;20274;-60
2022/11/16 12:16:32;;;;;;;34.30;21.40;;;;;;;;;;5077117;28;20219;-60
2022/11/16 12:19:14;;;;;;;42.28;23.20;;;;;;;;;;5080245;28;20192;-61
2022/11/16 12:21:49;;;;;;;35.10;23.10;;;;;;;;;;5085746;28;20191;-61
2022/11/16 12:24:23;;;;;;;35.78;22.63;;;;;;;;;;5092285;28;20201;-60
2022/11/16 12:26:56;;;;;;;36.25;24.17;;;;;;;;;;5103441;28;20180;-59
2022/11/16 12:29:29;;;;;;;36.90;21.63;;;;;;;;;;5096163;28;20196;-59
2022/11/16 12:32:04;;;;;;;37.22;24.65;;;;;;;;;;5096149;28;20187;-59
2022/11/16 12:34:37;;;;;;;33.00;21.88;;;;;;;;;;5096244;28;20190;-59
2022/11/16 12:37:10;;;;;;;33.85;20.92;;;;;;;;;;5095864;28;20230;-59
2022/11/16 12:39:41;;;;;;;32.07;20.23;;;;;;;;;;5098449;28;20193;-59
2022/11/16 12:42:24;;;;;;;31.08;21.63;;;;;;;;;;5109211;28;20488;-59
2022/11/16 12:45:05;;;;;;;36.25;21.25;;;;;;;;;;5108872;28;20235;-59
2022/11/16 12:47:38;;;;;;;36.53;22.00;;;;;;;;;;5098852;28;20215;-59
2022/11/16 12:50:08;;;;;;;35.72;22.83;;;;;;;;;;5109586;28;20201;-60
2022/11/16 12:52:46;;;;;;;32.15;21.90;;;;;;;;;;5106485;28;20225;-59
2022/11/16 12:55:21;;;;;;;36.13;22.35;;;;;;;;;;5105068;28;20373;-60
2022/11/16 12:57:55;;;;;;;33.85;22.52;;;;;;;;;;5095092;28;20460;-60
2022/11/16 13:00:22;;;;;;;32.72;22.83;;;;;;;;;;5082436;28;20729;-60
2022/11/16 13:03:04;;;;;;;33.60;20.60;;;;;;;;;;5108198;28;20274;-60
2022/11/16 13:05:42;;;;;;;31.77;20.55;;;;;;;;;;5106274;28;20190;-60
2022/11/16 13:08:15;;;;;;;37.47;20.77;;;;;;;;;;5098362;28;20222;-60
2022/11/16 13:10:45;;;;;;;25.60;19.83;;;;;;;;;;5109363;28;20529;-59
2022/11/16 13:13:15;;;;;;;24.42;19.35;;;;;;;;;;5105783;28;20590;-59
2022/11/16 13:15:45;;;;;;;29.70;19.63;;;;;;;;;;5101127;27;20655;-59
2022/11/16 13:18:12;;;;;;;29.48;20.25;;;;;;;;;;5094895;28;20577;-59
2022/11/16 13:20:45;;;;;;;28.97;20.43;;;;;;;;;;5091528;28;20213;-60
2022/11/16 13:23:17;;;;;;;29.73;19.63;;;;;;;;;;5082445;28;20447;-60
2022/11/16 13:25:47;;;;;;;24.38;18.60;;;;;;;;;;5083534;28;20551;-60
2022/11/16 13:28:19;;;;;;;26.00;19.57;;;;;;;;;;5083928;28;20191;-60
2022/11/16 13:30:50;;;;;;;24.13;18.20;;;;;;;;;;5079919;28;20533;-59
2022/11/16 13:33:23;;;;;;;24.23;18.00;;;;;;;;;;5110939;28;20986;-60
2022/11/16 13:35:51;;;;;;;22.02;16.10;;;;;;;;;;5107485;28;20194;-60
2022/11/16 13:38:39;;;;;;;23.30;16.38;;;;;;;;;;5094478;28;20566;-60
2022/11/16 13:41:21;;;;;;;24.07;15.70;;;;;;;;;;5077597;28;20181;-60
2022/11/16 13:43:49;;;;;;;22.65;17.08;;;;;;;;;;5080664;28;20460;-60
2022/11/16 13:46:16;;;;;;;22.80;16.55;;;;;;;;;;5086766;28;20192;-60
2022/11/16 13:48:45;;;;;;;20.08;15.65;;;;;;;;;;5094291;28;20231;-60
2022/11/16 13:51:18;;;;;;;23.00;17.07;;;;;;;;;;5094441;28;20555;-60
2022/11/16 13:53:51;;;;;;;24.15;16.02;;;;;;;;;;5094457;28;20541;-59
2022/11/16 13:56:19;;;;;;;19.37;15.97;;;;;;;;;;5094474;28;20202;-60
2022/11/16 13:58:49;;;;;;;25.42;15.52;;;;;;;;;;5111077;28;20509;-60
2022/11/16 14:01:17;;;;;;;21.27;16.10;;;;;;;;;;5101781;28;20180;-60
2022/11/16 14:03:44;;;;;;;21.50;17.03;;;;;;;;;;5103332;28;20449;-60
2022/11/16 14:06:30;;;;;;;23.65;14.07;;;;;;;;;;5108986;28;20539;-60
2022/11/16 14:08:58;;;;;;;21.90;15.83;;;;;;;;;;5082939;28;20210;-60
2022/11/16 14:11:30;;;;;;;21.08;16.38;;;;;;;;;;5105847;28;20485;-60
2022/11/16 14:13:57;;;;;;;21.70;15.20;;;;;;;;;;5106736;28;20269;-60
2022/11/16 14:16:42;;;;;;;21.93;15.67;;;;;;;;;;5097429;28;20561;-60
2022/11/16 14:19:24;;;;;;;18.60;13.63;;;;;;;;;;5086200;28;20444;-61
2022/11/16 14:21:53;;;;;;;20.45;15.05;;;;;;;;;;5101658;28;20903;-59
2022/11/16 14:24:27;;;;;;;20.38;14.77;;;;;;;;;;5110177;28;20599;-60
2022/11/16 14:26:59;;;;;;;20.30;13.53;;;;;;;;;;5081534;28;20215;-60
2022/11/16 14:29:36;;;;;;;15.75;13.05;;;;;;;;;;5105374;28;20534;-61
2022/11/16 14:32:05;;;;;;;17.05;13.40;;;;;;;;;;5107584;28;20285;-61
2022/11/16 14:34:34;;;;;;;19.53;14.90;;;;;;;;;;5112770;28;20191;-60
2022/11/16 14:37:02;;;;;;;18.97;14.40;;;;;;;;;;5098419;28;20469;-60
2022/11/16 14:39:37;;;;;;;17.40;12.80;;;;;;;;;;5104759;28;20446;-60
2022/11/16 14:42:04;;;;;;;25.27;14.53;;;;;;;;;;5106759;28;20449;-60
2022/11/16 14:44:34;;;;;;;17.93;13.17;;;;;;;;;;5096739;28;20921;-60
2022/11/16 14:47:02;;;;;;;19.70;15.10;;;;;;;;;;5108145;28;20477;-60
2022/11/16 14:49:31;;;;;;;21.93;14.40;;;;;;;;;;5102312;28;20456;-60
2022/11/16 14:52:04;;;;;;;18.23;14.98;;;;;;;;;;5096507;28;20538;-60
2022/11/16 14:54:35;;;;;;;19.17;14.67;;;;;;;;;;5109763;28;20567;-60
2022/11/16 14:57:04;;;;;;;19.95;14.75;;;;;;;;;;5098475;28;20480;-61
2022/11/16 14:59:31;;;;;;;18.93;14.70;;;;;;;;;;5104239;28;20267;-60
2022/11/16 15:01:58;;;;;;;19.30;15.27;;;;;;;;;;5106261;28;20995;-60
2022/11/16 15:04:27;;;;;;;22.38;14.93;;;;;;;;;;5096416;28;20460;-60